Time;durP1;ratioP1;P1;durP2;ratioP2;P2;SDS_P1;SDS_P2;PMS_P1;PMS_P2;Temp;Humidity;BMP_temperature;BMP_pressure;BME280_temperature;BME280_humidity;BME280_pressure;Samples;Min_cycle;Max_cycle;Signal;HPM_P1;HPM_P2
2022/12/29 00:01:52;;;;;;;9.13;7.22;;;;;;;;;;5072695;28;20029;-78
2022/12/29 00:04:18;;;;;;;9.48;6.80;;;;;;;;;;5042713;28;20051;-78
2022/12/29 00:06:44;;;;;;;9.55;7.28;;;;;;;;;;5065607;28;20456;-78
2022/12/29 00:09:12;;;;;;;8.48;6.97;;;;;;;;;;5061137;28;20041;-77
2022/12/29 00:11:38;;;;;;;9.30;6.72;;;;;;;;;;5071335;28;20081;-77
2022/12/29 00:16:49;;;;;;;9.27;6.82;;;;;;;;;;5043333;28;20862;-78
2022/12/29 00:36:06;;;;;;;7.53;5.55;;;;;;;;;;5066707;28;20051;-77
2022/12/29 00:44:06;;;;;;;6.70;5.40;;;;;;;;;;5071751;28;20047;-77
2022/12/29 00:46:33;;;;;;;6.38;5.03;;;;;;;;;;5070565;28;20055;-78
2022/12/29 00:51:44;;;;;;;7.18;5.03;;;;;;;;;;5037320;28;20098;-77
2022/12/29 00:54:11;;;;;;;9.55;4.70;;;;;;;;;;5063385;28;20124;-77
2022/12/29 00:56:37;;;;;;;6.43;5.00;;;;;;;;;;5035493;28;20041;-78
2022/12/29 00:59:04;;;;;;;7.35;5.05;;;;;;;;;;5061405;28;20173;-77
2022/12/29 01:01:30;;;;;;;7.45;5.13;;;;;;;;;;5068470;28;20607;-78
2022/12/29 01:03:56;;;;;;;6.63;4.65;;;;;;;;;;5050970;28;20048;-78
2022/12/29 01:06:23;;;;;;;6.45;4.43;;;;;;;;;;5048782;28;20051;-77
2022/12/29 01:10:09;;;;;;;5.30;4.20;;;;;;;;;;5070764;28;20127;-77
2022/12/29 01:11:38;;;;;;;5.80;3.92;;;;;;;;;;5059094;28;20059;-77
2022/12/29 01:14:04;;;;;;;5.70;3.85;;;;;;;;;;5074498;28;20040;-77
2022/12/29 01:16:30;;;;;;;5.07;3.67;;;;;;;;;;5075381;28;20076;-78
2022/12/29 01:18:57;;;;;;;8.10;3.78;;;;;;;;;;5074688;28;20045;-77
2022/12/29 01:21:23;;;;;;;4.88;3.28;;;;;;;;;;5065960;28;20041;-77
2022/12/29 01:23:49;;;;;;;5.45;3.42;;;;;;;;;;5069333;28;20045;-78
2022/12/29 01:26:16;;;;;;;5.20;3.67;;;;;;;;;;5051689;28;20071;-78
2022/12/29 01:28:42;;;;;;;4.68;3.20;;;;;;;;;;5066676;28;20146;-77
2022/12/29 01:31:12;;;;;;;4.75;3.53;;;;;;;;;;5060482;28;20043;-77
2022/12/29 01:33:38;;;;;;;3.90;3.13;;;;;;;;;;5074118;28;20461;-77
2022/12/29 01:36:05;;;;;;;5.20;3.03;;;;;;;;;;5057023;28;20128;-77
2022/12/29 01:38:32;;;;;;;4.15;3.08;;;;;;;;;;5044802;28;20081;-77
2022/12/29 01:40:58;;;;;;;4.95;2.80;;;;;;;;;;5052003;28;20505;-77
2022/12/29 01:43:43;;;;;;;5.45;3.10;;;;;;;;;;5074603;28;20033;-77
2022/12/29 01:46:29;;;;;;;5.45;2.92;;;;;;;;;;5074031;28;20556;-77
2022/12/29 01:49:16;;;;;;;6.15;3.10;;;;;;;;;;5050441;28;20051;-77
2022/12/29 01:51:50;;;;;;;3.67;2.33;;;;;;;;;;5073522;28;20055;-77
2022/12/29 01:54:18;;;;;;;4.20;2.70;;;;;;;;;;5073850;28;20037;-77
2022/12/29 01:56:45;;;;;;;4.68;2.72;;;;;;;;;;5073644;28;20106;-78
2022/12/29 01:59:15;;;;;;;4.22;2.70;;;;;;;;;;5062148;28;20037;-77
2022/12/29 02:01:41;;;;;;;3.65;2.38;;;;;;;;;;5057988;28;20456;-77
2022/12/29 02:04:10;;;;;;;4.57;2.10;;;;;;;;;;5057281;28;20382;-77
2022/12/29 02:06:38;;;;;;;5.75;2.47;;;;;;;;;;5059272;28;20045;-78
2022/12/29 02:09:04;;;;;;;4.65;2.40;;;;;;;;;;5073836;28;20063;-77
2022/12/29 02:11:31;;;;;;;7.32;2.58;;;;;;;;;;5042548;28;20045;-77
2022/12/29 02:13:57;;;;;;;4.22;2.15;;;;;;;;;;5067482;28;20051;-77
2022/12/29 02:16:26;;;;;;;4.05;1.80;;;;;;;;;;5054034;28;20498;-77
2022/12/29 02:19:01;;;;;;;3.35;1.80;;;;;;;;;;5073036;28;20090;-77
2022/12/29 02:21:46;;;;;;;4.63;2.00;;;;;;;;;;5064671;28;20045;-77
2022/12/29 02:24:12;;;;;;;3.50;1.90;;;;;;;;;;5070887;28;20071;-78
2022/12/29 02:26:44;;;;;;;4.82;2.00;;;;;;;;;;5063294;28;20037;-77
2022/12/29 02:29:13;;;;;;;3.42;2.00;;;;;;;;;;5067157;28;20044;-77
2022/12/29 02:31:46;;;;;;;4.38;1.83;;;;;;;;;;5062077;28;20036;-77
2022/12/29 02:34:21;;;;;;;3.70;2.08;;;;;;;;;;5054391;28;20040;-78
2022/12/29 02:37:04;;;;;;;3.78;1.95;;;;;;;;;;5062268;28;20580;-77
2022/12/29 02:39:50;;;;;;;3.35;1.73;;;;;;;;;;5072619;28;20069;-77
2022/12/29 02:42:22;;;;;;;4.77;2.20;;;;;;;;;;5073645;28;20036;-77
2022/12/29 02:45:06;;;;;;;2.90;1.70;;;;;;;;;;5072526;28;20325;-76
2022/12/29 02:47:42;;;;;;;3.22;1.67;;;;;;;;;;5072905;28;20048;-77
2022/12/29 02:50:08;;;;;;;3.10;1.90;;;;;;;;;;5048825;28;20037;-77
2022/12/29 02:52:44;;;;;;;4.85;1.73;;;;;;;;;;5106642;28;20044;-77
2022/12/29 02:55:11;;;;;;;2.72;1.60;;;;;;;;;;5073105;28;20081;-77
2022/12/29 02:57:37;;;;;;;3.28;1.77;;;;;;;;;;5072595;28;20046;-77
2022/12/29 03:00:12;;;;;;;4.47;1.70;;;;;;;;;;5073954;28;20118;-77
2022/12/29 03:02:38;;;;;;;3.72;1.83;;;;;;;;;;5065340;28;20069;-78
2022/12/29 03:05:07;;;;;;;2.70;1.52;;;;;;;;;;5058447;28;20102;-78
2022/12/29 03:07:39;;;;;;;3.33;1.83;;;;;;;;;;5071904;28;20049;-77
2022/12/29 03:10:10;;;;;;;4.25;1.80;;;;;;;;;;5068846;28;20040;-77
2022/12/29 03:18:18;;;;;;;;;;;;;;;;;;5072016;28;20048;-77
2022/12/29 03:20:48;;;;;;;3.53;1.83;;;;;;;;;;5059061;28;19963;-78
2022/12/29 03:23:14;;;;;;;4.97;2.10;;;;;;;;;;5072267;28;20085;-77
2022/12/29 03:25:43;;;;;;;4.43;2.10;;;;;;;;;;5057654;28;20044;-77
2022/12/29 03:28:12;;;;;;;3.42;1.80;;;;;;;;;;5072399;28;20042;-77
2022/12/29 03:30:38;;;;;;;3.90;1.88;;;;;;;;;;5071526;28;20045;-77
2022/12/29 03:33:06;;;;;;;4.07;1.55;;;;;;;;;;5064537;28;20076;-77
2022/12/29 03:35:34;;;;;;;3.88;1.75;;;;;;;;;;5052073;28;20128;-77
2022/12/29 03:38:06;;;;;;;4.15;1.85;;;;;;;;;;5057115;28;20059;-77
2022/12/29 03:40:34;;;;;;;5.60;2.00;;;;;;;;;;5071973;28;20048;-77
2022/12/29 03:43:00;;;;;;;3.67;1.75;;;;;;;;;;5053500;28;20397;-77
2022/12/29 03:45:26;;;;;;;6.47;2.13;;;;;;;;;;5051732;28;20045;-77
2022/12/29 03:47:53;;;;;;;6.60;1.90;;;;;;;;;;5051505;28;20041;-77
2022/12/29 03:50:20;;;;;;;4.80;1.73;;;;;;;;;;5060650;28;20036;-77
2022/12/29 03:52:46;;;;;;;5.93;1.65;;;;;;;;;;5070469;28;20044;-77
2022/12/29 03:55:12;;;;;;;5.00;1.40;;;;;;;;;;5041968;28;20401;-77
2022/12/29 03:57:38;;;;;;;7.43;1.52;;;;;;;;;;5054774;28;20129;-77
2022/12/29 04:00:05;;;;;;;3.42;1.20;;;;;;;;;;5063292;28;20041;-77
2022/12/29 04:02:31;;;;;;;8.10;1.58;;;;;;;;;;5051392;28;20041;-77
2022/12/29 04:04:57;;;;;;;6.35;1.30;;;;;;;;;;5051290;28;20041;-77
2022/12/29 04:07:23;;;;;;;4.35;1.20;;;;;;;;;;5051845;28;20405;-77
2022/12/29 04:09:49;;;;;;;4.70;1.13;;;;;;;;;;5056178;28;20120;-77
2022/12/29 04:12:15;;;;;;;4.95;1.50;;;;;;;;;;5049471;28;20539;-78
2022/12/29 04:14:41;;;;;;;2.47;0.90;;;;;;;;;;5051030;28;20441;-77
2022/12/29 04:17:07;;;;;;;3.10;0.77;;;;;;;;;;5052633;28;20095;-77
2022/12/29 04:19:33;;;;;;;5.40;0.90;;;;;;;;;;5052425;28;20068;-77
2022/12/29 04:21:59;;;;;;;3.47;1.00;;;;;;;;;;5050899;28;20041;-77
2022/12/29 04:24:28;;;;;;;5.03;1.10;;;;;;;;;;5052742;28;20039;-78
2022/12/29 04:26:54;;;;;;;4.45;1.17;;;;;;;;;;5050999;28;20040;-77
2022/12/29 04:29:21;;;;;;;3.80;0.95;;;;;;;;;;5051342;28;20109;-76
2022/12/29 04:31:47;;;;;;;4.50;1.30;;;;;;;;;;5052060;28;20080;-77
2022/12/29 04:34:13;;;;;;;4.05;1.13;;;;;;;;;;5047857;28;20049;-77
2022/12/29 04:36:39;;;;;;;4.53;1.30;;;;;;;;;;5063408;28;20528;-76
2022/12/29 04:39:06;;;;;;;7.60;1.58;;;;;;;;;;5051427;28;20075;-77
2022/12/29 04:41:32;;;;;;;5.43;1.50;;;;;;;;;;5037528;28;20036;-77
2022/12/29 04:43:58;;;;;;;7.50;1.70;;;;;;;;;;5050670;28;20049;-77
2022/12/29 04:46:24;;;;;;;12.85;1.50;;;;;;;;;;5050891;28;20130;-77
2022/12/29 04:48:50;;;;;;;6.43;1.48;;;;;;;;;;5017885;28;20098;-77
2022/12/29 04:51:16;;;;;;;6.10;1.50;;;;;;;;;;5053158;28;20044;-77
2022/12/29 04:53:42;;;;;;;5.03;1.30;;;;;;;;;;5063150;28;20041;-77
2022/12/29 04:56:09;;;;;;;4.50;1.48;;;;;;;;;;5051723;28;20037;-77
2022/12/29 04:58:35;;;;;;;8.50;2.00;;;;;;;;;;5051012;28;20080;-77
2022/12/29 05:01:01;;;;;;;7.47;1.45;;;;;;;;;;5050075;28;20033;-77
2022/12/29 05:03:27;;;;;;;9.57;1.42;;;;;;;;;;5037882;28;20053;-77
2022/12/29 05:05:54;;;;;;;8.05;1.80;;;;;;;;;;5050371;28;20147;-77
2022/12/29 05:08:21;;;;;;;11.90;2.90;;;;;;;;;;5052201;28;20061;-76
2022/12/29 05:10:47;;;;;;;7.78;1.80;;;;;;;;;;5067531;28;20182;-77
2022/12/29 05:13:13;;;;;;;9.35;1.70;;;;;;;;;;5051085;28;20052;-77
2022/12/29 05:15:39;;;;;;;10.15;1.58;;;;;;;;;;5036775;28;20126;-77
2022/12/29 05:18:05;;;;;;;7.10;1.63;;;;;;;;;;5050470;28;20041;-77
2022/12/29 05:20:31;;;;;;;11.32;1.90;;;;;;;;;;5034189;28;20033;-77
2022/12/29 05:22:57;;;;;;;10.70;1.70;;;;;;;;;;5051764;28;20045;-77
2022/12/29 05:25:23;;;;;;;9.50;1.48;;;;;;;;;;5050643;28;20059;-77
2022/12/29 05:27:49;;;;;;;8.93;1.88;;;;;;;;;;5050859;28;20060;-78
2022/12/29 05:30:15;;;;;;;11.43;1.90;;;;;;;;;;5050924;28;20076;-77
2022/12/29 05:32:41;;;;;;;11.02;1.95;;;;;;;;;;5050623;28;20071;-77
2022/12/29 05:35:07;;;;;;;10.75;1.65;;;;;;;;;;5025733;28;20434;-77
2022/12/29 05:37:34;;;;;;;5.97;1.30;;;;;;;;;;5050423;28;20049;-77
2022/12/29 05:40:00;;;;;;;7.15;1.17;;;;;;;;;;5033665;28;20040;-78
2022/12/29 05:42:26;;;;;;;9.27;2.83;;;;;;;;;;5034263;28;20123;-77
2022/12/29 05:44:53;;;;;;;6.18;1.30;;;;;;;;;;5033820;28;20044;-77
2022/12/29 05:47:19;;;;;;;8.32;1.38;;;;;;;;;;5050383;28;20056;-77
2022/12/29 05:49:45;;;;;;;6.90;1.10;;;;;;;;;;5050517;28;20509;-77
2022/12/29 05:52:11;;;;;;;5.65;1.38;;;;;;;;;;5033840;28;20701;-78
2022/12/29 05:54:38;;;;;;;7.35;1.40;;;;;;;;;;5033914;28;20494;-77
2022/12/29 05:57:04;;;;;;;6.88;1.05;;;;;;;;;;5051437;28;20045;-77
2022/12/29 05:59:30;;;;;;;5.93;1.20;;;;;;;;;;5053943;28;20037;-77
2022/12/29 06:01:56;;;;;;;10.38;1.50;;;;;;;;;;5053574;28;20032;-78
2022/12/29 06:04:22;;;;;;;8.48;1.52;;;;;;;;;;5053861;28;20147;-78
2022/12/29 06:06:48;;;;;;;13.02;1.90;;;;;;;;;;5054031;28;20527;-78
2022/12/29 06:09:14;;;;;;;12.05;1.80;;;;;;;;;;5053566;28;20048;-78
2022/12/29 06:11:41;;;;;;;9.82;1.75;;;;;;;;;;5053564;28;20041;-77
2022/12/29 06:14:07;;;;;;;8.30;1.50;;;;;;;;;;5053577;28;20037;-77
2022/12/29 06:16:33;;;;;;;10.45;1.35;;;;;;;;;;5053859;28;20045;-77
2022/12/29 06:18:59;;;;;;;10.65;1.98;;;;;;;;;;5053137;28;20056;-78
2022/12/29 06:21:25;;;;;;;10.68;2.00;;;;;;;;;;5053616;28;20090;-78
2022/12/29 06:23:51;;;;;;;9.23;1.73;;;;;;;;;;5053803;28;20086;-77
2022/12/29 06:26:17;;;;;;;10.40;1.70;;;;;;;;;;5053151;28;20045;-77
2022/12/29 06:28:43;;;;;;;8.05;1.45;;;;;;;;;;5053775;28;20044;-77
2022/12/29 06:31:10;;;;;;;13.23;1.73;;;;;;;;;;5054780;28;20167;-77
2022/12/29 06:33:37;;;;;;;8.93;1.63;;;;;;;;;;5049880;28;20061;-78
2022/12/29 06:36:03;;;;;;;12.40;1.90;;;;;;;;;;5036457;28;20501;-78
2022/12/29 06:38:29;;;;;;;12.25;1.73;;;;;;;;;;5053641;28;20047;-78
2022/12/29 06:40:55;;;;;;;11.50;1.63;;;;;;;;;;5053179;28;20116;-78
2022/12/29 06:43:21;;;;;;;7.40;1.60;;;;;;;;;;5036296;28;20037;-77
2022/12/29 06:45:47;;;;;;;9.27;1.98;;;;;;;;;;5035165;28;20053;-77
2022/12/29 06:48:13;;;;;;;11.30;1.80;;;;;;;;;;5053199;28;20516;-77
2022/12/29 06:50:39;;;;;;;10.57;2.08;;;;;;;;;;5036283;28;20033;-77
2022/12/29 06:53:06;;;;;;;7.55;1.58;;;;;;;;;;5052566;28;20037;-77
2022/12/29 06:55:32;;;;;;;11.85;2.20;;;;;;;;;;5052805;28;20393;-77
2022/12/29 06:57:58;;;;;;;12.63;1.90;;;;;;;;;;5052817;28;20033;-77
2022/12/29 07:00:25;;;;;;;13.48;2.60;;;;;;;;;;5036126;28;20033;-77
2022/12/29 07:02:51;;;;;;;11.55;1.65;;;;;;;;;;5052848;28;20529;-77
2022/12/29 07:05:17;;;;;;;13.30;1.95;;;;;;;;;;5069042;28;20045;-77
2022/12/29 07:07:43;;;;;;;8.43;1.60;;;;;;;;;;5051728;28;20041;-77
2022/12/29 07:10:10;;;;;;;12.50;2.13;;;;;;;;;;5052250;28;20490;-77
2022/12/29 07:12:36;;;;;;;11.48;2.00;;;;;;;;;;5054138;28;20379;-77
2022/12/29 07:15:02;;;;;;;11.75;1.90;;;;;;;;;;5052517;28;20569;-77
2022/12/29 07:17:28;;;;;;;12.38;2.35;;;;;;;;;;5052808;28;20053;-77
2022/12/29 07:19:54;;;;;;;13.75;2.67;;;;;;;;;;5052389;28;20040;-77
2022/12/29 07:22:20;;;;;;;11.55;2.00;;;;;;;;;;5051703;28;20033;-77
2022/12/29 07:24:46;;;;;;;13.70;2.75;;;;;;;;;;5069384;28;20124;-76
2022/12/29 07:27:12;;;;;;;12.52;1.75;;;;;;;;;;5066207;28;20494;-77
2022/12/29 07:29:38;;;;;;;10.60;1.80;;;;;;;;;;5052559;28;20045;-78
2022/12/29 07:32:05;;;;;;;8.77;1.85;;;;;;;;;;5068632;28;20049;-77
2022/12/29 07:34:31;;;;;;;9.45;1.77;;;;;;;;;;5052095;28;20068;-76
2022/12/29 07:36:57;;;;;;;10.95;2.08;;;;;;;;;;5069761;28;20081;-79
2022/12/29 07:39:23;;;;;;;13.73;2.30;;;;;;;;;;5035229;28;20056;-79
2022/12/29 07:41:49;;;;;;;10.43;1.80;;;;;;;;;;5035753;28;20037;-79
2022/12/29 07:44:18;;;;;;;15.30;2.05;;;;;;;;;;5052939;28;20443;-78
2022/12/29 07:46:46;;;;;;;10.93;1.63;;;;;;;;;;5069436;28;20052;-79
2022/12/29 07:49:13;;;;;;;13.75;2.28;;;;;;;;;;5068858;28;20507;-79
2022/12/29 07:51:39;;;;;;;14.98;1.92;;;;;;;;;;5051892;28;20040;-70
2022/12/29 07:54:05;;;;;;;13.35;2.05;;;;;;;;;;5068060;28;20449;-69
2022/12/29 07:56:31;;;;;;;17.48;2.67;;;;;;;;;;5051588;28;20489;-71
2022/12/29 07:58:57;;;;;;;15.43;2.17;;;;;;;;;;5051677;28;20056;-71
2022/12/29 08:01:36;;;;;;;16.05;2.35;;;;;;;;;;5051519;28;20040;-71
2022/12/29 08:04:11;;;;;;;15.52;2.10;;;;;;;;;;5051538;28;20051;-71
2022/12/29 08:06:37;;;;;;;14.32;2.25;;;;;;;;;;5035598;28;20120;-70
2022/12/29 08:09:04;;;;;;;12.75;2.47;;;;;;;;;;5051499;28;20630;-71
2022/12/29 08:11:30;;;;;;;16.10;2.67;;;;;;;;;;5050967;28;20052;-71
2022/12/29 08:13:56;;;;;;;12.48;2.20;;;;;;;;;;5050859;28;20041;-71
2022/12/29 08:16:22;;;;;;;13.52;2.05;;;;;;;;;;5052142;28;20033;-71
2022/12/29 08:18:48;;;;;;;15.63;2.65;;;;;;;;;;5051193;28;20041;-71
2022/12/29 08:21:14;;;;;;;11.75;1.90;;;;;;;;;;5051988;28;20044;-71
2022/12/29 08:23:40;;;;;;;17.27;2.53;;;;;;;;;;5050854;28;20041;-71
2022/12/29 08:26:06;;;;;;;15.27;2.20;;;;;;;;;;5051338;28;20116;-71
2022/12/29 08:28:33;;;;;;;17.63;2.38;;;;;;;;;;5051937;28;20051;-71
2022/12/29 08:31:00;;;;;;;15.35;2.53;;;;;;;;;;5052633;28;20037;-71
2022/12/29 08:33:26;;;;;;;15.73;2.83;;;;;;;;;;5048353;28;20387;-71
2022/12/29 08:35:53;;;;;;;15.40;2.38;;;;;;;;;;5049840;28;20379;-71
2022/12/29 08:38:19;;;;;;;16.92;2.45;;;;;;;;;;5050144;28;20093;-71
2022/12/29 08:40:45;;;;;;;16.90;2.10;;;;;;;;;;5050806;28;20095;-71
2022/12/29 08:43:11;;;;;;;17.55;2.30;;;;;;;;;;5050811;28;20044;-71
2022/12/29 08:45:37;;;;;;;15.85;2.25;;;;;;;;;;5051940;28;20517;-71
2022/12/29 08:48:03;;;;;;;15.60;2.30;;;;;;;;;;5034556;28;20045;-71
2022/12/29 08:50:29;;;;;;;12.43;1.95;;;;;;;;;;5033994;28;20494;-71
2022/12/29 08:52:55;;;;;;;14.90;3.03;;;;;;;;;;5050573;28;20098;-71
2022/12/29 08:55:21;;;;;;;13.63;2.42;;;;;;;;;;5051702;28;20128;-71
2022/12/29 08:57:47;;;;;;;9.70;1.55;;;;;;;;;;5052075;28;20045;-72
2022/12/29 09:00:14;;;;;;;10.23;1.73;;;;;;;;;;5050678;28;20037;-72
2022/12/29 09:02:40;;;;;;;14.00;1.88;;;;;;;;;;5050233;28;20076;-70
2022/12/29 09:05:07;;;;;;;12.68;2.20;;;;;;;;;;5033975;28;20045;-71
2022/12/29 09:07:33;;;;;;;12.10;1.73;;;;;;;;;;5033636;28;20072;-71
2022/12/29 09:09:59;;;;;;;15.82;2.50;;;;;;;;;;5050563;28;20044;-71
2022/12/29 09:12:25;;;;;;;9.48;1.77;;;;;;;;;;5050236;28;20037;-71
2022/12/29 09:14:51;;;;;;;12.77;2.40;;;;;;;;;;5051951;28;20041;-71
2022/12/29 09:20:02;;;;;;;11.32;1.80;;;;;;;;;;5050517;28;20083;-71
2022/12/29 09:22:28;;;;;;;13.50;2.00;;;;;;;;;;5050346;28;20048;-71
2022/12/29 09:24:54;;;;;;;14.43;2.63;;;;;;;;;;5050351;28;20052;-71
2022/12/29 09:27:20;;;;;;;11.50;2.42;;;;;;;;;;5050020;28;20082;-71
2022/12/29 09:29:46;;;;;;;12.48;1.80;;;;;;;;;;5050435;28;20041;-71
2022/12/29 09:32:12;;;;;;;14.13;1.90;;;;;;;;;;5052177;28;20080;-71
2022/12/29 09:34:38;;;;;;;15.85;2.50;;;;;;;;;;5033340;28;20482;-71
2022/12/29 09:37:04;;;;;;;10.77;1.75;;;;;;;;;;5053988;28;20056;-71
2022/12/29 09:39:31;;;;;;;10.88;2.05;;;;;;;;;;5054915;28;20134;-71
2022/12/29 09:42:14;;;;;;;14.60;1.85;;;;;;;;;;5054144;28;20041;-70
2022/12/29 09:44:55;;;;;;;13.00;1.90;;;;;;;;;;5037052;28;20037;-70
2022/12/29 09:47:23;;;;;;;15.77;1.77;;;;;;;;;;5037502;28;20049;-70
2022/12/29 09:49:53;;;;;;;12.60;2.15;;;;;;;;;;5053948;28;20053;-70
2022/12/29 09:52:22;;;;;;;12.50;2.17;;;;;;;;;;5054546;28;20557;-71
2022/12/29 09:54:57;;;;;;;14.00;2.65;;;;;;;;;;5053202;28;20044;-70
2022/12/29 09:57:30;;;;;;;14.48;2.58;;;;;;;;;;5053958;28;20129;-71
2022/12/29 10:00:16;;;;;;;16.13;2.50;;;;;;;;;;5055297;28;20033;-71
2022/12/29 10:02:42;;;;;;;;;;;;;;;;;;5053583;28;20044;-71
2022/12/29 10:05:17;;;;;;;18.65;3.00;;;;;;;;;;5053546;28;20015;-71
2022/12/29 10:08:06;;;;;;;16.02;2.25;;;;;;;;;;5036878;28;20052;-71
2022/12/29 10:10:35;;;;;;;19.75;3.47;;;;;;;;;;5053052;28;20041;-71
2022/12/29 10:13:04;;;;;;;19.15;3.55;;;;;;;;;;5036857;28;20064;-71
2022/12/29 10:15:33;;;;;;;17.25;3.45;;;;;;;;;;5052825;28;20502;-71
2022/12/29 10:18:00;;;;;;;17.45;3.38;;;;;;;;;;5037103;28;20123;-71
2022/12/29 10:20:29;;;;;;;14.45;3.38;;;;;;;;;;5053495;28;20040;-70
2022/12/29 10:23:02;;;;;;;19.52;3.78;;;;;;;;;;5036705;28;20037;-70
2022/12/29 10:25:31;;;;;;;22.75;5.10;;;;;;;;;;5052799;28;20102;-71
2022/12/29 10:27:59;;;;;;;13.65;3.72;;;;;;;;;;5036513;28;20053;-71
2022/12/29 10:30:25;;;;;;;18.58;4.38;;;;;;;;;;5053552;28;20051;-71
2022/12/29 10:32:53;;;;;;;17.27;3.90;;;;;;;;;;5054125;28;20040;-71
2022/12/29 10:35:23;;;;;;;15.75;3.40;;;;;;;;;;5032360;28;20048;-71
2022/12/29 10:37:59;;;;;;;18.05;2.90;;;;;;;;;;5052837;28;20505;-71
2022/12/29 10:40:45;;;;;;;11.20;2.50;;;;;;;;;;5053087;28;20076;-71
2022/12/29 10:43:21;;;;;;;14.85;2.10;;;;;;;;;;5052693;28;20086;-71
2022/12/29 10:45:48;;;;;;;13.27;1.92;;;;;;;;;;5052377;28;20110;-71
2022/12/29 10:48:22;;;;;;;10.65;2.17;;;;;;;;;;5053186;28;20033;-71
2022/12/29 10:50:49;;;;;;;12.98;2.13;;;;;;;;;;5052200;28;20130;-71
2022/12/29 10:53:21;;;;;;;12.93;2.20;;;;;;;;;;5052703;28;20452;-71
2022/12/29 10:55:48;;;;;;;17.13;2.28;;;;;;;;;;5052427;28;20402;-71
2022/12/29 10:58:15;;;;;;;14.63;2.30;;;;;;;;;;5052961;28;20563;-72
2022/12/29 11:00:42;;;;;;;13.32;3.05;;;;;;;;;;5052652;28;20397;-71
2022/12/29 11:03:27;;;;;;;18.75;3.47;;;;;;;;;;5036445;28;20041;-71
2022/12/29 11:05:56;;;;;;;15.52;2.83;;;;;;;;;;5052778;28;20497;-71
2022/12/29 11:08:25;;;;;;;15.82;2.88;;;;;;;;;;5052648;28;20129;-72
2022/12/29 11:10:59;;;;;;;12.55;2.60;;;;;;;;;;5051801;28;20047;-72
2022/12/29 11:13:26;;;;;;;15.57;2.83;;;;;;;;;;5052180;28;20041;-71
2022/12/29 11:15:52;;;;;;;13.15;2.45;;;;;;;;;;5051751;28;20048;-71
2022/12/29 11:18:22;;;;;;;15.45;2.60;;;;;;;;;;5035751;28;20041;-72
2022/12/29 11:20:49;;;;;;;17.83;2.95;;;;;;;;;;5052450;28;20371;-71
2022/12/29 11:23:22;;;;;;;19.70;3.40;;;;;;;;;;5052243;28;20037;-72
2022/12/29 11:26:12;;;;;;;14.57;2.88;;;;;;;;;;5051783;28;20043;-71
2022/12/29 11:28:38;;;;;;;18.48;3.10;;;;;;;;;;5082847;28;20111;-71
2022/12/29 11:31:06;;;;;;;20.33;2.75;;;;;;;;;;5052427;28;20520;-71
2022/12/29 11:33:33;;;;;;;16.27;3.50;;;;;;;;;;5049092;28;20041;-72
2022/12/29 11:36:02;;;;;;;20.98;3.30;;;;;;;;;;5051161;28;20075;-71
2022/12/29 11:38:34;;;;;;;21.75;3.08;;;;;;;;;;5051630;28;20084;-71
2022/12/29 11:41:00;;;;;;;17.08;3.33;;;;;;;;;;5051659;28;20037;-71
2022/12/29 11:43:39;;;;;;;20.05;3.00;;;;;;;;;;5051750;28;20036;-71
2022/12/29 11:46:05;;;;;;;24.27;3.45;;;;;;;;;;5051757;28;20032;-71
2022/12/29 11:48:41;;;;;;;24.60;6.50;;;;;;;;;;5051995;28;20048;-71
2022/12/29 11:51:08;;;;;;;16.75;3.50;;;;;;;;;;5068404;28;20075;-71
2022/12/29 11:53:44;;;;;;;22.40;3.15;;;;;;;;;;5052635;28;20064;-71
2022/12/29 11:56:10;;;;;;;;;;;;;;;;;;5052870;28;20028;-72
2022/12/29 11:58:37;;;;;;;22.92;3.85;;;;;;;;;;5051880;28;20008;-72
2022/12/29 12:01:06;;;;;;;22.13;3.05;;;;;;;;;;5051075;28;20037;-71
2022/12/29 12:03:35;;;;;;;23.23;3.25;;;;;;;;;;5052886;28;20033;-72
2022/12/29 12:06:02;;;;;;;24.15;3.15;;;;;;;;;;5052084;28;20094;-72
2022/12/29 12:08:39;;;;;;;24.52;4.13;;;;;;;;;;5051328;28;20499;-72
2022/12/29 12:11:08;;;;;;;21.23;3.55;;;;;;;;;;5051097;28;20036;-71
2022/12/29 12:13:38;;;;;;;31.08;4.05;;;;;;;;;;5051298;28;20037;-71
2022/12/29 12:16:04;;;;;;;21.88;4.38;;;;;;;;;;5051299;28;20441;-71
2022/12/29 12:18:39;;;;;;;23.15;4.20;;;;;;;;;;5051804;28;20044;-71
2022/12/29 12:21:23;;;;;;;20.58;4.40;;;;;;;;;;5050995;28;20090;-70
2022/12/29 12:24:08;;;;;;;25.38;4.63;;;;;;;;;;5050650;28;20048;-70
2022/12/29 12:26:46;;;;;;;23.20;4.00;;;;;;;;;;5051332;28;20083;-70
2022/12/29 12:29:14;;;;;;;14.63;2.90;;;;;;;;;;5050844;28;20041;-70
2022/12/29 12:32:04;;;;;;;18.90;2.88;;;;;;;;;;5051168;28;20048;-71
2022/12/29 12:34:36;;;;;;;23.13;3.28;;;;;;;;;;5047629;28;20064;-71
2022/12/29 12:37:21;;;;;;;19.25;2.53;;;;;;;;;;5050655;28;20068;-71
2022/12/29 12:40:03;;;;;;;19.20;3.00;;;;;;;;;;5050439;28;20481;-71
2022/12/29 12:42:58;;;;;;;16.90;2.53;;;;;;;;;;5034038;28;20053;-71
2022/12/29 12:45:24;;;;;;;24.45;3.35;;;;;;;;;;5051774;28;20045;-71
2022/12/29 12:48:00;;;;;;;16.73;2.78;;;;;;;;;;5033937;28;20093;-71
2022/12/29 12:50:29;;;;;;;19.30;2.83;;;;;;;;;;5052170;28;20079;-70
2022/12/29 12:52:58;;;;;;;16.05;2.58;;;;;;;;;;5050501;28;20037;-71
2022/12/29 12:55:43;;;;;;;13.07;2.65;;;;;;;;;;5050783;28;20037;-72
2022/12/29 12:58:18;;;;;;;14.50;2.17;;;;;;;;;;5050145;28;20037;-71
2022/12/29 13:01:04;;;;;;;15.40;2.50;;;;;;;;;;5051117;28;20033;-71
2022/12/29 13:03:36;;;;;;;12.80;2.63;;;;;;;;;;5074083;28;20045;-71
2022/12/29 13:06:22;;;;;;;12.93;2.40;;;;;;;;;;5051784;28;20049;-71
2022/12/29 13:09:04;;;;;;;15.68;3.03;;;;;;;;;;5084768;28;20501;-71
2022/12/29 13:11:45;;;;;;;18.90;2.90;;;;;;;;;;5054802;28;20051;-71
2022/12/29 13:14:11;;;;;;;12.13;1.98;;;;;;;;;;5054127;28;20114;-71
2022/12/29 13:16:45;;;;;;;16.27;2.20;;;;;;;;;;5054592;28;20080;-71
2022/12/29 13:19:15;;;;;;;13.30;2.25;;;;;;;;;;5054399;28;20106;-71
2022/12/29 13:21:54;;;;;;;14.55;2.10;;;;;;;;;;5056468;28;20045;-71
2022/12/29 13:24:23;;;;;;;19.42;3.08;;;;;;;;;;5054789;28;20513;-71
2022/12/29 13:26:55;;;;;;;15.73;2.15;;;;;;;;;;5054384;28;20123;-71
2022/12/29 13:29:32;;;;;;;18.90;2.70;;;;;;;;;;5037893;28;20087;-71
2022/12/29 13:32:16;;;;;;;14.85;2.33;;;;;;;;;;5054134;28;20551;-71
2022/12/29 13:34:57;;;;;;;18.92;2.63;;;;;;;;;;5047655;28;20048;-72
2022/12/29 13:37:26;;;;;;;16.58;2.63;;;;;;;;;;5054351;28;20065;-71
2022/12/29 13:40:01;;;;;;;14.55;2.30;;;;;;;;;;5053655;28;20130;-71
2022/12/29 13:42:28;;;;;;;12.43;2.10;;;;;;;;;;5054156;28;20057;-72
2022/12/29 13:45:02;;;;;;;14.27;2.53;;;;;;;;;;5053909;28;20486;-72
2022/12/29 13:47:36;;;;;;;14.63;2.45;;;;;;;;;;5037445;28;20045;-71
2022/12/29 13:50:04;;;;;;;14.25;2.22;;;;;;;;;;5036834;28;20104;-71
2022/12/29 13:52:50;;;;;;;11.20;1.83;;;;;;;;;;5053970;28;20045;-71
2022/12/29 13:55:27;;;;;;;12.00;2.03;;;;;;;;;;5053443;28;20430;-71
2022/12/29 13:58:06;;;;;;;9.38;1.60;;;;;;;;;;5054350;28;20504;-71
2022/12/29 14:00:50;;;;;;;12.60;1.85;;;;;;;;;;5053643;28;20045;-71
2022/12/29 14:03:28;;;;;;;10.80;2.17;;;;;;;;;;5053417;28;20489;-71
2022/12/29 14:06:27;;;;;;;14.40;2.38;;;;;;;;;;5053816;28;20044;-71
2022/12/29 14:08:55;;;;;;;9.88;2.03;;;;;;;;;;5075814;28;20097;-71
2022/12/29 14:11:24;;;;;;;15.18;2.78;;;;;;;;;;5053344;28;20045;-71
2022/12/29 14:13:50;;;;;;;12.48;2.20;;;;;;;;;;5053279;28;20048;-71
2022/12/29 14:16:34;;;;;;;13.80;1.90;;;;;;;;;;5052984;28;20040;-71
2022/12/29 14:19:10;;;;;;;18.70;6.20;;;;;;;;;;5052244;28;20044;-72
2022/12/29 14:21:37;;;;;;;12.75;2.90;;;;;;;;;;5053724;28;20037;-71
2022/12/29 14:24:22;;;;;;;15.23;3.47;;;;;;;;;;5054254;28;20041;-71
2022/12/29 14:26:48;;;;;;;15.80;4.18;;;;;;;;;;5037033;28;20491;-71
2022/12/29 14:29:17;;;;;;;9.98;2.75;;;;;;;;;;5054245;28;20612;-71
2022/12/29 14:31:43;;;;;;;13.52;2.95;;;;;;;;;;5036703;28;20045;-71
2022/12/29 14:34:09;;;;;;;14.05;2.70;;;;;;;;;;5048680;28;20073;-71
2022/12/29 14:36:36;;;;;;;11.45;1.65;;;;;;;;;;5053235;28;20120;-71
2022/12/29 14:39:03;;;;;;;11.38;2.72;;;;;;;;;;5052316;28;20037;-71
2022/12/29 14:41:29;;;;;;;8.93;1.70;;;;;;;;;;5053222;28;20041;-71
2022/12/29 14:43:57;;;;;;;14.02;1.98;;;;;;;;;;5053349;28;20080;-71
2022/12/29 14:46:24;;;;;;;12.32;1.90;;;;;;;;;;5052495;28;20110;-71
2022/12/29 14:48:56;;;;;;;13.10;2.05;;;;;;;;;;5053132;28;20106;-71
2022/12/29 14:51:29;;;;;;;14.90;2.17;;;;;;;;;;5052308;28;20068;-71
2022/12/29 14:53:55;;;;;;;15.52;3.15;;;;;;;;;;5036168;28;20049;-71
2022/12/29 14:56:25;;;;;;;13.07;2.42;;;;;;;;;;5052542;28;20115;-71
2022/12/29 14:58:54;;;;;;;16.10;1.85;;;;;;;;;;5052736;28;20041;-71
2022/12/29 15:01:28;;;;;;;9.75;1.67;;;;;;;;;;5052105;28;20033;-71
2022/12/29 15:04:00;;;;;;;9.80;2.00;;;;;;;;;;5052715;28;20053;-72
2022/12/29 15:06:29;;;;;;;12.95;1.85;;;;;;;;;;5052229;28;20053;-71
2022/12/29 15:08:58;;;;;;;11.25;2.25;;;;;;;;;;5053773;28;20116;-71
2022/12/29 15:11:41;;;;;;;10.60;1.58;;;;;;;;;;5053434;28;20534;-71
2022/12/29 15:14:26;;;;;;;12.38;2.33;;;;;;;;;;5052142;28;20128;-72
2022/12/29 15:16:52;;;;;;;10.55;2.30;;;;;;;;;;5053614;28;20140;-71
2022/12/29 15:19:22;;;;;;;21.42;2.30;;;;;;;;;;5051990;28;20380;-71
2022/12/29 15:21:49;;;;;;;15.25;2.17;;;;;;;;;;5053249;28;20118;-71
2022/12/29 15:24:15;;;;;;;14.82;2.25;;;;;;;;;;5035615;28;20047;-71
2022/12/29 15:26:49;;;;;;;12.43;2.55;;;;;;;;;;5052342;28;20425;-71